Date,TemperatureHighF,TemperatureAvgF,TemperatureLowF,DewpointHighF,DewpointAvgF,DewpointLowF,HumidityHigh,HumidityAvg,HumidityLow,PressureMaxIn,PressureMinIn,WindSpeedMaxMPH,WindSpeedAvgMPH,GustSpeedMaxMPH,PrecipitationSumIn
2013-2-1,29,18,6,15,7,-1,72,61,51,30.48,30.18,0,0,0,0.00
2013-2-2,40,33,29,27,22,15,85,66,56,30.18,30.05,0,0,0,0.00
2013-2-3,38,31,26,28,21,16,87,68,47,30.24,29.96,0,0,0,0.00
2013-2-4,49,36,25,34,27,20,80,68,55,30.01,29.84,0,0,0,0.00
2013-2-5,53,36,25,37,28,20,86,73,53,30.16,29.92,0,0,0,0.00
2013-2-6,56,40,25,36,28,21,89,66,39,30.21,30.01,0,0,0,0.00
2013-2-7,48,42,35,45,36,29,89,79,57,30.13,29.89,0,0,0,0.00
2013-2-8,35,32,31,32,28,27,87,84,80,30.39,30.13,0,0,0,0.00
2013-2-9,45,37,31,33,30,26,85,76,60,30.34,29.96,0,0,0,0.00
2013-2-10,62,47,37,53,38,26,92,74,40,29.97,29.50,0,0,0,0.00
2013-2-11,50,40,30,31,27,22,74,59,47,30.17,29.82,0,0,0,0.00
2013-2-12,44,34,23,31,26,19,86,73,58,30.19,29.97,0,0,0,0.00
2013-2-13,51,39,29,34,29,24,83,69,49,29.97,29.83,0,0,0,0.00
2013-2-14,52,43,36,36,32,26,79,64,51,30.11,29.82,0,0,0,0.00
2013-2-15,40,32,23,26,18,12,74,57,40,30.33,30.11,0,0,0,0.00
2013-2-16,38,27,17,20,15,10,76,61,43,30.31,30.16,0,0,0,0.00
2013-2-17,53,40,28,30,24,19,69,54,36,30.16,29.83,0,0,0,0.00
2013-2-18,56,44,28,47,35,19,86,71,59,29.98,29.49,0,0,0,0.00
2013-2-19,31,26,21,20,14,10,72,62,49,30.34,29.98,0,0,0,0.00
2013-2-20,27,21,14,14,11,6,71,64,57,30.43,30.28,0,0,0,0.00
2013-2-21,29,25,22,26,19,12,90,81,66,30.31,29.81,0,0,0,0.00
2013-2-22,32,29,20,30,24,14,91,82,70,30.08,29.78,0,0,0,0.00
2013-2-23,36,23,13,23,16,9,86,74,58,30.07,30.00,0,0,0,0.00
2013-2-24,45,28,10,28,19,5,83,69,50,30.12,30.01,0,0,0,0.00
2013-2-25,44,33,20,32,26,15,90,75,57,30.06,29.69,0,0,0,0.00
2013-2-26,34,33,32,33,31,30,93,93,90,29.74,29.43,0,0,0,0.00
2013-2-27,38,33,29,33,29,25,92,86,74,29.95,29.73,0,0,0,0.00
2013-2-28,40,32,28,31,27,24,87,80,67,30.15,29.94,0,0,0,0.00